Time,TemperatureF,DewpointF,PressureIn,WindDirection,WindDirectionDegrees,WindSpeedMPH,WindSpeedGustMPH,Humidity,HourlyPrecipIn,Conditions,Clouds,dailyrainin,SoftwareType,DateUTC
2013-02-05 00:13:00,5.3,-3.0,29.89,South,173,0.0,-999.0,68,-99.99,,,0.00,weatherlink.com 1.10,2013-02-05 05:13:00,
2013-02-05 00:28:00,4.7,-3.0,29.89,South,173,0.0,-999.0,71,-99.99,,,0.00,weatherlink.com 1.10,2013-02-05 05:28:00,
2013-02-05 00:44:00,3.5,-3.0,29.89,South,173,1.0,-999.0,73,-99.99,,,0.00,weatherlink.com 1.10,2013-02-05 05:44:00,
2013-02-05 00:59:00,3.7,-5.0,29.89,South,173,0.0,-999.0,68,-99.99,,,0.00,weatherlink.com 1.10,2013-02-05 05:59:00,
2013-02-05 01:14:00,4.9,-6.0,29.90,South,173,0.0,-999.0,62,-99.99,,,0.00,weatherlink.com 1.10,2013-02-05 06:14:00,
2013-02-05 01:29:00,5.2,-6.0,29.91,West,263,0.0,-999.0,60,-99.99,,,0.00,weatherlink.com 1.10,2013-02-05 06:29:00,
2013-02-05 01:44:00,5.5,-6.0,29.91,West,271,0.0,-999.0,60,-99.99,,,0.00,weatherlink.com 1.10,2013-02-05 06:44:00,
2013-02-05 01:59:00,5.4,-7.0,29.91,NW,308,0.0,-999.0,58,-99.99,,,0.00,weatherlink.com 1.10,2013-02-05 06:59:00,
2013-02-05 02:14:00,5.4,-7.0,29.92,NW,308,1.0,-999.0,58,-99.99,,,0.00,weatherlink.com 1.10,2013-02-05 07:14:00,
2013-02-05 02:29:00,5.3,-8.0,29.92,North,11,1.0,-999.0,55,-99.99,,,0.00,weatherlink.com 1.10,2013-02-05 07:29:00,
2013-02-05 02:44:00,5.1,-8.0,29.92,North,355,0.0,-999.0,55,-99.99,,,0.00,weatherlink.com 1.10,2013-02-05 07:44:00,
2013-02-05 02:59:00,5.0,-8.0,29.92,North,355,2.0,-999.0,55,-99.99,,,0.00,weatherlink.com 1.10,2013-02-05 07:59:00,
2013-02-05 03:15:00,4.8,-8.0,29.91,North,5,1.0,-999.0,56,-99.99,,,0.00,weatherlink.com 1.10,2013-02-05 08:15:00,
2013-02-05 03:29:00,4.6,-8.0,29.92,NNE,32,3.0,-999.0,56,-99.99,,,0.00,weatherlink.com 1.10,2013-02-05 08:29:00,
2013-02-05 03:44:00,4.4,-8.0,29.92,NNE,32,0.0,-999.0,56,-99.99,,,0.00,weatherlink.com 1.10,2013-02-05 08:44:00,
2013-02-05 03:59:00,4.0,-8.0,29.93,NNE,32,0.0,-999.0,58,-99.99,,,0.00,weatherlink.com 1.10,2013-02-05 08:59:00,
2013-02-05 04:15:00,3.6,-8.0,29.93,NW,304,0.0,-999.0,59,-99.99,,,0.00,weatherlink.com 1.10,2013-02-05 09:15:00,
2013-02-05 04:30:00,3.3,-8.0,29.93,NW,304,0.0,-999.0,61,-99.99,,,0.00,weatherlink.com 1.10,2013-02-05 09:30:00,
2013-02-05 04:45:00,3.1,-8.0,29.93,NW,304,1.0,-999.0,61,-99.99,,,0.00,weatherlink.com 1.10,2013-02-05 09:45:00,
2013-02-05 05:00:00,2.9,-8.0,29.94,NW,304,1.0,-999.0,61,-99.99,,,0.00,weatherlink.com 1.10,2013-02-05 10:00:00,
2013-02-05 05:15:00,2.9,-8.0,29.95,NW,304,0.0,-999.0,62,-99.99,,,0.00,weatherlink.com 1.10,2013-02-05 10:15:00,
2013-02-05 05:30:00,2.9,-8.0,29.95,NW,314,0.0,-999.0,60,-99.99,,,0.00,weatherlink.com 1.10,2013-02-05 10:30:00,
2013-02-05 05:45:00,3.0,-8.0,29.95,NW,314,0.0,-999.0,60,-99.99,,,0.00,weatherlink.com 1.10,2013-02-05 10:45:00,
2013-02-05 06:00:00,2.5,-7.0,29.95,NW,314,0.0,-999.0,66,-99.99,,,0.00,weatherlink.com 1.10,2013-02-05 11:00:00,
2013-02-05 06:15:00,1.1,-7.0,29.95,NW,314,0.0,-999.0,69,-99.99,,,0.00,weatherlink.com 1.10,2013-02-05 11:15:00,
2013-02-05 06:30:00,0.1,-7.0,29.95,NW,314,0.0,-999.0,72,-99.99,,,0.00,weatherlink.com 1.10,2013-02-05 11:30:00,
2013-02-05 06:45:00,-0.4,-7.0,29.96,NW,314,0.0,-999.0,72,-99.99,,,0.00,weatherlink.com 1.10,2013-02-05 11:45:00,
2013-02-05 07:00:00,-1.0,-7.0,29.96,NW,314,0.0,-999.0,75,-99.99,,,0.00,weatherlink.com 1.10,2013-02-05 12:00:00,
2013-02-05 07:16:00,-1.2,-7.0,29.97,NW,314,0.0,-999.0,78,-99.99,,,0.00,weatherlink.com 1.10,2013-02-05 12:16:00,
2013-02-05 07:30:00,-1.0,-6.0,29.98,NW,314,0.0,-999.0,78,-99.99,,,0.00,weatherlink.com 1.10,2013-02-05 12:30:00,
2013-02-05 07:46:00,-0.9,-6.0,29.99,NW,314,0.0,-999.0,79,-99.99,,,0.00,weatherlink.com 1.10,2013-02-05 12:46:00,
2013-02-05 08:01:00,-0.1,-6.0,30.00,NW,314,0.0,-999.0,77,-99.99,,,0.00,weatherlink.com 1.10,2013-02-05 13:01:00,
2013-02-05 08:16:00,0.7,-6.0,30.00,NW,314,0.0,-999.0,74,-99.99,,,0.00,weatherlink.com 1.10,2013-02-05 13:16:00,
2013-02-05 08:31:00,1.4,-6.0,30.01,NW,314,0.0,-999.0,72,-99.99,,,0.00,weatherlink.com 1.10,2013-02-05 13:31:00,
2013-02-05 08:46:00,2.6,-6.0,30.01,NW,314,0.0,-999.0,67,-99.99,,,0.00,weatherlink.com 1.10,2013-02-05 13:46:00,
2013-02-05 09:01:00,3.7,-7.0,30.01,NW,314,0.0,-999.0,60,-99.99,,,0.00,weatherlink.com 1.10,2013-02-05 14:01:00,
2013-02-05 09:16:00,4.5,-7.0,30.01,NW,314,0.0,-999.0,59,-99.99,,,0.00,weatherlink.com 1.10,2013-02-05 14:16:00,
2013-02-05 09:31:00,5.1,-7.0,30.02,NW,314,0.0,-999.0,58,-99.99,,,0.00,weatherlink.com 1.10,2013-02-05 14:31:00,
2013-02-05 09:46:00,5.8,-6.0,30.02,NW,314,0.0,-999.0,59,-99.99,,,0.00,weatherlink.com 1.10,2013-02-05 14:46:00,
2013-02-05 10:01:00,6.7,-6.0,30.02,NW,314,0.0,-999.0,57,-99.99,,,0.00,weatherlink.com 1.10,2013-02-05 15:01:00,
2013-02-05 10:17:00,8.1,-5.0,30.02,West,270,0.0,-999.0,55,-99.99,,,0.00,weatherlink.com 1.10,2013-02-05 15:17:00,
2013-02-05 10:31:00,9.2,-5.0,30.02,WSW,257,0.0,-999.0,54,-99.99,,,0.00,weatherlink.com 1.10,2013-02-05 15:31:00,
2013-02-05 10:46:00,10.1,-4.0,30.02,SW,225,0.0,-999.0,54,-99.99,,,0.00,weatherlink.com 1.10,2013-02-05 15:46:00,
2013-02-05 11:02:00,11.0,-2.0,30.02,NW,319,0.0,-999.0,55,-99.99,,,0.00,weatherlink.com 1.10,2013-02-05 16:02:00,
2013-02-05 11:17:00,11.8,-3.0,30.02,NW,317,1.0,-999.0,51,-99.99,,,0.00,weatherlink.com 1.10,2013-02-05 16:17:00,
2013-02-05 11:32:00,12.3,-3.0,30.01,SSE,168,1.0,-999.0,50,-99.99,,,0.00,weatherlink.com 1.10,2013-02-05 16:32:00,
2013-02-05 11:47:00,13.1,-1.0,30.00,WNW,294,0.0,-999.0,53,-99.99,,,0.00,weatherlink.com 1.10,2013-02-05 16:47:00,
2013-02-05 12:02:00,13.9,-2.0,29.99,WSW,244,0.0,-999.0,49,-99.99,,,0.00,weatherlink.com 1.10,2013-02-05 17:02:00,
2013-02-05 12:17:00,14.8,-2.0,29.99,SSW,200,2.0,-999.0,47,-99.99,,,0.00,weatherlink.com 1.10,2013-02-05 17:17:00,
2013-02-05 12:32:00,15.4,-3.0,29.98,West,278,2.0,-999.0,45,-99.99,,,0.00,weatherlink.com 1.10,2013-02-05 17:32:00,
2013-02-05 12:47:00,16.1,-2.0,29.98,North,360,0.0,-999.0,45,-99.99,,,0.00,weatherlink.com 1.10,2013-02-05 17:47:00,
2013-02-05 13:02:00,17.2,-1.0,29.97,NW,316,1.0,-999.0,45,-99.99,,,0.00,weatherlink.com 1.10,2013-02-05 18:02:00,
2013-02-05 13:17:00,17.7,-1.0,29.97,East,101,0.0,-999.0,43,-99.99,,,0.00,weatherlink.com 1.10,2013-02-05 18:17:00,
2013-02-05 13:32:00,18.6,-2.0,29.97,SW,217,0.0,-999.0,41,-99.99,,,0.00,weatherlink.com 1.10,2013-02-05 18:32:00,
2013-02-05 13:48:00,19.7,1.0,29.97,SW,235,2.0,-999.0,44,-99.99,,,0.00,weatherlink.com 1.10,2013-02-05 18:48:00,
2013-02-05 14:02:00,19.4,-1.0,29.96,NW,315,0.0,-999.0,41,-99.99,,,0.00,weatherlink.com 1.10,2013-02-05 19:02:00,
2013-02-05 14:17:00,19.4,-2.0,29.96,SW,227,0.0,-999.0,39,-99.99,,,0.00,weatherlink.com 1.10,2013-02-05 19:17:00,
2013-02-05 14:33:00,19.2,-3.0,29.96,SSW,199,0.0,-999.0,38,-99.99,,,0.00,weatherlink.com 1.10,2013-02-05 19:33:00,
2013-02-05 14:48:00,19.8,-1.0,29.95,WSW,246,1.0,-999.0,40,-99.99,,,0.00,weatherlink.com 1.10,2013-02-05 19:48:00,
2013-02-05 15:18:00,20.0,-2.0,29.95,North,355,0.0,-999.0,38,-99.99,,,0.00,weatherlink.com 1.10,2013-02-05 20:18:00,
2013-02-05 15:33:00,20.0,-1.0,29.95,North,355,0.0,-999.0,39,-99.99,,,0.00,weatherlink.com 1.10,2013-02-05 20:33:00,
2013-02-05 15:48:00,18.9,-2.0,29.95,WNW,298,1.0,-999.0,40,-99.99,,,0.00,weatherlink.com 1.10,2013-02-05 20:48:00,
2013-02-05 16:03:00,18.6,-2.0,29.95,WNW,298,0.0,-999.0,41,-99.99,,,0.00,weatherlink.com 1.10,2013-02-05 21:03:00,
2013-02-05 16:18:00,18.6,-2.0,29.95,West,267,0.0,-999.0,40,-99.99,,,0.00,weatherlink.com 1.10,2013-02-05 21:18:00,
2013-02-05 16:33:00,18.4,-1.0,29.95,West,267,0.0,-999.0,42,-99.99,,,0.00,weatherlink.com 1.10,2013-02-05 21:33:00,
2013-02-05 16:48:00,17.9,-2.0,29.95,West,267,0.0,-999.0,42,-99.99,,,0.00,weatherlink.com 1.10,2013-02-05 21:48:00,
2013-02-05 17:03:00,17.4,-2.0,29.95,West,267,0.0,-999.0,43,-99.99,,,0.00,weatherlink.com 1.10,2013-02-05 22:03:00,
2013-02-05 17:18:00,16.5,0.0,29.96,West,267,0.0,-999.0,49,-99.99,,,0.00,weatherlink.com 1.10,2013-02-05 22:18:00,
2013-02-05 17:33:00,15.3,1.0,29.95,West,267,0.0,-999.0,53,-99.99,,,0.00,weatherlink.com 1.10,2013-02-05 22:33:00,
2013-02-05 17:49:00,14.1,1.0,29.95,West,267,0.0,-999.0,57,-99.99,,,0.00,weatherlink.com 1.10,2013-02-05 22:49:00,
2013-02-05 18:04:00,13.5,3.0,29.95,West,267,0.0,-999.0,63,-99.99,,,0.00,weatherlink.com 1.10,2013-02-05 23:04:00,
2013-02-05 18:19:00,13.4,4.0,29.94,West,267,0.0,-999.0,65,-99.99,,,0.00,weatherlink.com 1.10,2013-02-05 23:19:00,
2013-02-05 18:34:00,13.5,5.0,29.93,West,267,0.0,-999.0,68,-99.99,,,0.00,weatherlink.com 1.10,2013-02-05 23:34:00,
2013-02-05 18:49:00,13.9,4.0,29.93,West,267,0.0,-999.0,65,-99.99,,,0.00,weatherlink.com 1.10,2013-02-05 23:49:00,
2013-02-05 19:04:00,14.3,3.0,29.93,West,267,0.0,-999.0,62,-99.99,,,0.00,weatherlink.com 1.10,2013-02-06 00:04:00,
2013-02-05 19:19:00,14.6,4.0,29.93,West,267,0.0,-999.0,62,-99.99,,,0.00,weatherlink.com 1.10,2013-02-06 00:19:00,
2013-02-05 19:34:00,14.7,4.0,29.93,West,267,0.0,-999.0,63,-99.99,,,0.00,weatherlink.com 1.10,2013-02-06 00:34:00,
2013-02-05 19:49:00,14.9,4.0,29.93,West,267,0.0,-999.0,62,-99.99,,,0.00,weatherlink.com 1.10,2013-02-06 00:49:00,
2013-02-05 20:04:00,15.0,2.0,29.93,West,267,0.0,-999.0,56,-99.99,,,0.00,weatherlink.com 1.10,2013-02-06 01:04:00,
2013-02-05 20:19:00,15.2,2.0,29.94,West,267,0.0,-999.0,56,-99.99,,,0.00,weatherlink.com 1.10,2013-02-06 01:19:00,
2013-02-05 20:34:00,15.1,3.0,29.94,West,267,0.0,-999.0,59,-99.99,,,0.00,weatherlink.com 1.10,2013-02-06 01:34:00,
2013-02-05 20:49:00,14.8,2.0,29.94,West,267,0.0,-999.0,57,-99.99,,,0.00,weatherlink.com 1.10,2013-02-06 01:49:00,
2013-02-05 21:04:00,14.6,3.0,29.93,West,267,0.0,-999.0,60,-99.99,,,0.00,weatherlink.com 1.10,2013-02-06 02:04:00,
2013-02-05 21:20:00,14.6,3.0,29.94,West,267,0.0,-999.0,59,-99.99,,,0.00,weatherlink.com 1.10,2013-02-06 02:20:00,
2013-02-05 21:35:00,14.4,3.0,29.93,West,267,0.0,-999.0,62,-99.99,,,0.00,weatherlink.com 1.10,2013-02-06 02:35:00,
2013-02-05 21:50:00,14.2,4.0,29.93,West,267,0.0,-999.0,64,-99.99,,,0.00,weatherlink.com 1.10,2013-02-06 02:50:00,
2013-02-05 22:05:00,13.6,4.0,29.93,West,267,0.0,-999.0,66,-99.99,,,0.00,weatherlink.com 1.10,2013-02-06 03:05:00,
2013-02-05 22:20:00,13.6,4.0,29.93,West,267,0.0,-999.0,66,-99.99,,,0.00,weatherlink.com 1.10,2013-02-06 03:20:00,
2013-02-05 22:35:00,14.0,6.0,29.93,West,267,0.0,-999.0,70,-99.99,,,0.00,weatherlink.com 1.10,2013-02-06 03:35:00,
2013-02-05 22:50:00,14.1,6.0,29.93,West,267,0.0,-999.0,71,-99.99,,,0.00,weatherlink.com 1.10,2013-02-06 03:50:00,
2013-02-05 23:05:00,14.6,6.0,29.93,West,267,0.0,-999.0,68,-99.99,,,0.00,weatherlink.com 1.10,2013-02-06 04:05:00,
2013-02-05 23:20:00,14.9,6.0,29.92,West,267,0.0,-999.0,69,-99.99,,,0.00,weatherlink.com 1.10,2013-02-06 04:20:00,
2013-02-05 23:36:00,15.0,8.0,29.93,West,267,0.0,-999.0,72,-99.99,,,0.00,weatherlink.com 1.10,2013-02-06 04:36:00,
2013-02-05 23:50:00,15.1,7.0,29.92,West,267,0.0,-999.0,69,-99.99,,,0.00,weatherlink.com 1.10,2013-02-06 04:50:00,